sensor_id;sensor_type;location;lat;lon;timestamp;P1;durP1;ratioP1;P2;durP2;ratioP2
60292;SDS011;52402;52.670;6.750;2023-04-24T00:02:13;7.63;;;5.18;;
60292;SDS011;52402;52.670;6.750;2023-04-24T00:04:44;6.28;;;5.68;;
60292;SDS011;52402;52.670;6.750;2023-04-24T00:07:10;6.50;;;5.80;;
60292;SDS011;52402;52.670;6.750;2023-04-24T00:09:41;6.07;;;5.47;;
60292;SDS011;52402;52.670;6.750;2023-04-24T00:14:42;5.75;;;4.70;;
60292;SDS011;52402;52.670;6.750;2023-04-24T00:17:12;4.70;;;3.72;;
60292;SDS011;52402;52.670;6.750;2023-04-24T00:19:47;4.43;;;3.05;;
60292;SDS011;52402;52.670;6.750;2023-04-24T00:22:18;5.28;;;3.33;;
60292;SDS011;52402;52.670;6.750;2023-04-24T00:24:51;4.70;;;3.28;;
60292;SDS011;52402;52.670;6.750;2023-04-24T00:27:24;5.10;;;3.72;;
60292;SDS011;52402;52.670;6.750;2023-04-24T00:29:50;4.63;;;3.10;;
60292;SDS011;52402;52.670;6.750;2023-04-24T00:32:15;4.43;;;3.00;;
60292;SDS011;52402;52.670;6.750;2023-04-24T00:34:45;4.13;;;2.67;;
60292;SDS011;52402;52.670;6.750;2023-04-24T00:39:43;4.63;;;2.72;;
60292;SDS011;52402;52.670;6.750;2023-04-24T00:42:15;3.78;;;2.50;;
60292;SDS011;52402;52.670;6.750;2023-04-24T00:44:46;4.20;;;2.85;;
60292;SDS011;52402;52.670;6.750;2023-04-24T00:47:16;4.15;;;2.90;;
60292;SDS011;52402;52.670;6.750;2023-04-24T00:49:47;4.47;;;3.08;;
60292;SDS011;52402;52.670;6.750;2023-04-24T00:52:22;4.30;;;2.90;;
60292;SDS011;52402;52.670;6.750;2023-04-24T00:54:58;4.57;;;3.30;;
60292;SDS011;52402;52.670;6.750;2023-04-24T00:57:26;4.50;;;3.58;;
60292;SDS011;52402;52.670;6.750;2023-04-24T00:59:59;5.10;;;4.60;;
60292;SDS011;52402;52.670;6.750;2023-04-24T01:02:28;4.50;;;3.35;;
60292;SDS011;52402;52.670;6.750;2023-04-24T01:04:58;4.82;;;3.33;;
60292;SDS011;52402;52.670;6.750;2023-04-24T01:07:31;4.68;;;3.50;;
60292;SDS011;52402;52.670;6.750;2023-04-24T01:12:25;5.68;;;4.00;;
60292;SDS011;52402;52.670;6.750;2023-04-24T01:14:52;5.32;;;3.83;;
60292;SDS011;52402;52.670;6.750;2023-04-24T01:17:23;5.03;;;3.92;;
60292;SDS011;52402;52.670;6.750;2023-04-24T01:19:52;5.55;;;4.07;;
60292;SDS011;52402;52.670;6.750;2023-04-24T01:22:24;4.97;;;4.00;;
60292;SDS011;52402;52.670;6.750;2023-04-24T01:24:52;5.95;;;4.88;;
60292;SDS011;52402;52.670;6.750;2023-04-24T01:27:20;7.45;;;5.28;;
60292;SDS011;52402;52.670;6.750;2023-04-24T01:32:16;6.68;;;5.50;;
60292;SDS011;52402;52.670;6.750;2023-04-24T01:34:49;7.07;;;5.93;;
60292;SDS011;52402;52.670;6.750;2023-04-24T01:37:20;7.43;;;6.50;;
60292;SDS011;52402;52.670;6.750;2023-04-24T01:39:47;8.60;;;6.95;;
60292;SDS011;52402;52.670;6.750;2023-04-24T01:42:15;10.52;;;9.43;;
60292;SDS011;52402;52.670;6.750;2023-04-24T01:44:54;10.23;;;9.10;;
60292;SDS011;52402;52.670;6.750;2023-04-24T01:47:24;11.23;;;9.55;;
60292;SDS011;52402;52.670;6.750;2023-04-24T01:49:54;10.68;;;9.57;;
60292;SDS011;52402;52.670;6.750;2023-04-24T01:52:27;12.35;;;11.05;;
60292;SDS011;52402;52.670;6.750;2023-04-24T01:55:03;12.43;;;11.18;;
60292;SDS011;52402;52.670;6.750;2023-04-24T01:57:39;11.50;;;10.40;;
60292;SDS011;52402;52.670;6.750;2023-04-24T02:00:15;11.38;;;10.18;;
60292;SDS011;52402;52.670;6.750;2023-04-24T02:02:48;11.57;;;9.68;;
60292;SDS011;52402;52.670;6.750;2023-04-24T02:07:48;11.10;;;10.02;;
60292;SDS011;52402;52.670;6.750;2023-04-24T02:10:19;10.77;;;9.68;;
60292;SDS011;52402;52.670;6.750;2023-04-24T02:12:44;9.85;;;8.85;;
60292;SDS011;52402;52.670;6.750;2023-04-24T02:15:20;11.25;;;9.82;;
60292;SDS011;52402;52.670;6.750;2023-04-24T02:17:49;9.55;;;8.55;;
60292;SDS011;52402;52.670;6.750;2023-04-24T02:20:14;10.32;;;8.57;;
60292;SDS011;52402;52.670;6.750;2023-04-24T02:22:44;10.18;;;8.68;;
60292;SDS011;52402;52.670;6.750;2023-04-24T02:25:14;11.68;;;10.02;;
60292;SDS011;52402;52.670;6.750;2023-04-24T02:27:45;11.30;;;10.20;;
60292;SDS011;52402;52.670;6.750;2023-04-24T02:30:20;10.77;;;9.60;;
60292;SDS011;52402;52.670;6.750;2023-04-24T02:32:53;9.88;;;8.52;;
60292;SDS011;52402;52.670;6.750;2023-04-24T02:35:23;9.68;;;8.75;;
60292;SDS011;52402;52.670;6.750;2023-04-24T02:37:51;10.27;;;8.88;;
60292;SDS011;52402;52.670;6.750;2023-04-24T02:40:19;8.55;;;7.50;;
60292;SDS011;52402;52.670;6.750;2023-04-24T02:42:44;7.95;;;6.90;;
60292;SDS011;52402;52.670;6.750;2023-04-24T02:45:20;8.25;;;7.25;;
60292;SDS011;52402;52.670;6.750;2023-04-24T02:47:46;8.27;;;7.40;;
60292;SDS011;52402;52.670;6.750;2023-04-24T02:50:19;9.43;;;7.68;;
60292;SDS011;52402;52.670;6.750;2023-04-24T02:52:49;7.63;;;6.80;;
60292;SDS011;52402;52.670;6.750;2023-04-24T02:55:17;8.13;;;6.82;;
60292;SDS011;52402;52.670;6.750;2023-04-24T02:57:43;7.53;;;6.68;;
60292;SDS011;52402;52.670;6.750;2023-04-24T03:00:10;8.18;;;6.88;;
60292;SDS011;52402;52.670;6.750;2023-04-24T03:02:40;8.20;;;7.40;;
60292;SDS011;52402;52.670;6.750;2023-04-24T03:05:08;7.95;;;7.15;;
60292;SDS011;52402;52.670;6.750;2023-04-24T03:07:44;7.03;;;5.30;;
60292;SDS011;52402;52.670;6.750;2023-04-24T03:10:17;6.82;;;5.47;;
60292;SDS011;52402;52.670;6.750;2023-04-24T03:12:43;7.15;;;5.75;;
60292;SDS011;52402;52.670;6.750;2023-04-24T03:15:15;6.85;;;5.60;;
60292;SDS011;52402;52.670;6.750;2023-04-24T03:17:48;6.15;;;4.63;;
60292;SDS011;52402;52.670;6.750;2023-04-24T03:20:18;7.38;;;5.63;;
60292;SDS011;52402;52.670;6.750;2023-04-24T03:22:51;7.50;;;5.32;;
60292;SDS011;52402;52.670;6.750;2023-04-24T03:25:21;7.45;;;5.60;;
60292;SDS011;52402;52.670;6.750;2023-04-24T03:27:52;8.65;;;6.13;;
60292;SDS011;52402;52.670;6.750;2023-04-24T03:30:27;7.18;;;5.50;;
60292;SDS011;52402;52.670;6.750;2023-04-24T03:32:55;7.65;;;5.75;;
60292;SDS011;52402;52.670;6.750;2023-04-24T03:35:32;8.50;;;6.28;;
60292;SDS011;52402;52.670;6.750;2023-04-24T03:38:00;9.27;;;8.20;;
60292;SDS011;52402;52.670;6.750;2023-04-24T03:40:31;9.88;;;8.75;;
60292;SDS011;52402;52.670;6.750;2023-04-24T03:43:02;10.65;;;9.55;;
60292;SDS011;52402;52.670;6.750;2023-04-24T03:45:34;10.68;;;9.68;;
60292;SDS011;52402;52.670;6.750;2023-04-24T03:48:04;10.57;;;9.48;;
60292;SDS011;52402;52.670;6.750;2023-04-24T03:50:33;8.60;;;7.60;;
60292;SDS011;52402;52.670;6.750;2023-04-24T03:53:01;8.35;;;7.47;;
60292;SDS011;52402;52.670;6.750;2023-04-24T03:55:37;8.40;;;7.50;;
60292;SDS011;52402;52.670;6.750;2023-04-24T03:58:09;9.82;;;7.63;;
60292;SDS011;52402;52.670;6.750;2023-04-24T04:00:39;7.55;;;5.80;;
60292;SDS011;52402;52.670;6.750;2023-04-24T04:03:05;7.43;;;5.78;;
60292;SDS011;52402;52.670;6.750;2023-04-24T04:05:36;10.07;;;6.95;;
60292;SDS011;52402;52.670;6.750;2023-04-24T04:08:03;8.40;;;6.50;;
60292;SDS011;52402;52.670;6.750;2023-04-24T04:10:31;9.73;;;7.13;;
60292;SDS011;52402;52.670;6.750;2023-04-24T04:12:57;9.85;;;7.80;;
60292;SDS011;52402;52.670;6.750;2023-04-24T04:15:30;9.40;;;7.93;;
60292;SDS011;52402;52.670;6.750;2023-04-24T04:18:03;9.68;;;7.68;;
60292;SDS011;52402;52.670;6.750;2023-04-24T04:20:33;9.50;;;7.50;;
60292;SDS011;52402;52.670;6.750;2023-04-24T04:23:01;10.45;;;8.45;;
60292;SDS011;52402;52.670;6.750;2023-04-24T04:25:31;12.55;;;11.23;;
60292;SDS011;52402;52.670;6.750;2023-04-24T04:27:57;13.73;;;12.32;;
60292;SDS011;52402;52.670;6.750;2023-04-24T04:30:29;14.02;;;12.63;;
60292;SDS011;52402;52.670;6.750;2023-04-24T04:33:00;14.50;;;13.10;;
60292;SDS011;52402;52.670;6.750;2023-04-24T04:35:28;10.40;;;8.10;;
60292;SDS011;52402;52.670;6.750;2023-04-24T04:38:03;8.90;;;7.40;;
60292;SDS011;52402;52.670;6.750;2023-04-24T04:42:59;9.40;;;7.22;;
60292;SDS011;52402;52.670;6.750;2023-04-24T04:45:32;9.38;;;7.18;;
60292;SDS011;52402;52.670;6.750;2023-04-24T04:48:02;9.25;;;7.18;;
60292;SDS011;52402;52.670;6.750;2023-04-24T04:50:35;8.50;;;6.05;;
60292;SDS011;52402;52.670;6.750;2023-04-24T04:53:05;8.65;;;6.13;;
60292;SDS011;52402;52.670;6.750;2023-04-24T04:55:35;9.23;;;7.65;;
60292;SDS011;52402;52.670;6.750;2023-04-24T04:58:04;10.05;;;7.63;;
60292;SDS011;52402;52.670;6.750;2023-04-24T05:00:35;10.15;;;7.60;;
60292;SDS011;52402;52.670;6.750;2023-04-24T05:03:08;9.77;;;8.02;;
60292;SDS011;52402;52.670;6.750;2023-04-24T05:05:40;9.50;;;6.97;;
60292;SDS011;52402;52.670;6.750;2023-04-24T05:08:11;10.80;;;7.47;;
60292;SDS011;52402;52.670;6.750;2023-04-24T05:10:39;8.70;;;7.53;;
60292;SDS011;52402;52.670;6.750;2023-04-24T05:13:05;9.32;;;7.13;;
60292;SDS011;52402;52.670;6.750;2023-04-24T05:15:35;7.72;;;6.10;;
60292;SDS011;52402;52.670;6.750;2023-04-24T05:18:01;7.60;;;5.88;;
60292;SDS011;52402;52.670;6.750;2023-04-24T05:22:59;7.00;;;4.75;;
60292;SDS011;52402;52.670;6.750;2023-04-24T05:25:29;6.18;;;4.75;;
60292;SDS011;52402;52.670;6.750;2023-04-24T05:28:05;6.18;;;4.38;;
60292;SDS011;52402;52.670;6.750;2023-04-24T05:30:41;5.93;;;4.10;;
60292;SDS011;52402;52.670;6.750;2023-04-24T05:33:14;6.22;;;4.80;;
60292;SDS011;52402;52.670;6.750;2023-04-24T05:35:47;6.40;;;4.90;;
60292;SDS011;52402;52.670;6.750;2023-04-24T05:38:19;7.68;;;4.63;;
60292;SDS011;52402;52.670;6.750;2023-04-24T05:40:49;6.30;;;4.55;;
60292;SDS011;52402;52.670;6.750;2023-04-24T05:43:25;7.20;;;4.78;;
60292;SDS011;52402;52.670;6.750;2023-04-24T05:45:55;7.00;;;4.85;;
60292;SDS011;52402;52.670;6.750;2023-04-24T05:48:25;8.38;;;5.72;;
60292;SDS011;52402;52.670;6.750;2023-04-24T05:50:56;8.55;;;5.50;;
60292;SDS011;52402;52.670;6.750;2023-04-24T05:55:50;6.53;;;4.55;;
60292;SDS011;52402;52.670;6.750;2023-04-24T05:58:20;6.35;;;4.40;;
60292;SDS011;52402;52.670;6.750;2023-04-24T06:00:48;6.35;;;4.00;;
60292;SDS011;52402;52.670;6.750;2023-04-24T06:03:25;5.78;;;3.72;;
60292;SDS011;52402;52.670;6.750;2023-04-24T06:06:22;5.22;;;3.63;;
60292;SDS011;52402;52.670;6.750;2023-04-24T06:09:42;7.40;;;4.78;;
60292;SDS011;52402;52.670;6.750;2023-04-24T06:12:15;7.03;;;4.45;;
60292;SDS011;52402;52.670;6.750;2023-04-24T06:14:46;6.32;;;4.13;;
60292;SDS011;52402;52.670;6.750;2023-04-24T06:19:41;5.72;;;3.78;;
60292;SDS011;52402;52.670;6.750;2023-04-24T06:22:12;5.00;;;3.35;;
60292;SDS011;52402;52.670;6.750;2023-04-24T06:24:44;5.68;;;3.90;;
60292;SDS011;52402;52.670;6.750;2023-04-24T06:27:20;6.85;;;3.67;;
60292;SDS011;52402;52.670;6.750;2023-04-24T06:29:50;5.78;;;3.85;;
60292;SDS011;52402;52.670;6.750;2023-04-24T06:32:22;6.00;;;4.18;;
60292;SDS011;52402;52.670;6.750;2023-04-24T06:34:55;5.57;;;3.90;;
60292;SDS011;52402;52.670;6.750;2023-04-24T06:37:23;6.53;;;4.60;;
60292;SDS011;52402;52.670;6.750;2023-04-24T06:40:02;8.18;;;5.05;;
60292;SDS011;52402;52.670;6.750;2023-04-24T06:42:34;8.25;;;5.57;;
60292;SDS011;52402;52.670;6.750;2023-04-24T06:45:05;8.13;;;5.72;;
60292;SDS011;52402;52.670;6.750;2023-04-24T06:47:36;8.45;;;6.30;;
60292;SDS011;52402;52.670;6.750;2023-04-24T06:50:06;9.07;;;6.00;;
60292;SDS011;52402;52.670;6.750;2023-04-24T06:52:42;6.95;;;5.03;;
60292;SDS011;52402;52.670;6.750;2023-04-24T06:55:10;9.50;;;5.63;;
60292;SDS011;52402;52.670;6.750;2023-04-24T06:57:41;8.40;;;5.68;;
60292;SDS011;52402;52.670;6.750;2023-04-24T07:00:15;9.75;;;7.45;;
60292;SDS011;52402;52.670;6.750;2023-04-24T07:02:46;7.35;;;5.00;;
60292;SDS011;52402;52.670;6.750;2023-04-24T07:05:13;7.38;;;4.70;;
60292;SDS011;52402;52.670;6.750;2023-04-24T07:07:47;8.55;;;5.15;;
60292;SDS011;52402;52.670;6.750;2023-04-24T07:10:18;8.07;;;6.20;;
60292;SDS011;52402;52.670;6.750;2023-04-24T07:12:51;8.32;;;5.15;;
60292;SDS011;52402;52.670;6.750;2023-04-24T07:15:21;7.43;;;5.35;;
60292;SDS011;52402;52.670;6.750;2023-04-24T07:17:55;7.38;;;4.60;;
60292;SDS011;52402;52.670;6.750;2023-04-24T07:20:28;7.40;;;4.78;;
60292;SDS011;52402;52.670;6.750;2023-04-24T07:25:53;8.32;;;5.03;;
60292;SDS011;52402;52.670;6.750;2023-04-24T07:28:34;8.65;;;5.20;;
60292;SDS011;52402;52.670;6.750;2023-04-24T07:31:03;7.80;;;4.20;;
60292;SDS011;52402;52.670;6.750;2023-04-24T07:33:36;5.15;;;3.30;;
60292;SDS011;52402;52.670;6.750;2023-04-24T07:36:09;4.85;;;3.30;;
60292;SDS011;52402;52.670;6.750;2023-04-24T07:38:48;5.47;;;3.40;;
60292;SDS011;52402;52.670;6.750;2023-04-24T07:41:28;5.55;;;3.60;;
60292;SDS011;52402;52.670;6.750;2023-04-24T07:44:03;5.95;;;3.47;;
60292;SDS011;52402;52.670;6.750;2023-04-24T07:46:47;8.05;;;4.72;;
60292;SDS011;52402;52.670;6.750;2023-04-24T07:49:17;9.68;;;5.60;;
60292;SDS011;52402;52.670;6.750;2023-04-24T07:54:40;12.07;;;7.53;;
60292;SDS011;52402;52.670;6.750;2023-04-24T07:57:08;8.70;;;6.40;;
60292;SDS011;52402;52.670;6.750;2023-04-24T07:59:49;8.77;;;7.20;;
60292;SDS011;52402;52.670;6.750;2023-04-24T08:02:28;12.23;;;8.48;;
60292;SDS011;52402;52.670;6.750;2023-04-24T08:04:59;12.45;;;8.43;;
60292;SDS011;52402;52.670;6.750;2023-04-24T08:07:31;10.30;;;7.25;;
60292;SDS011;52402;52.670;6.750;2023-04-24T08:09:56;9.13;;;6.78;;
60292;SDS011;52402;52.670;6.750;2023-04-24T08:12:35;10.52;;;7.20;;
60292;SDS011;52402;52.670;6.750;2023-04-24T08:15:11;10.52;;;7.63;;
60292;SDS011;52402;52.670;6.750;2023-04-24T08:17:41;10.43;;;6.82;;
60292;SDS011;52402;52.670;6.750;2023-04-24T08:20:19;11.40;;;7.88;;
60292;SDS011;52402;52.670;6.750;2023-04-24T08:22:58;10.10;;;7.70;;
60292;SDS011;52402;52.670;6.750;2023-04-24T08:25:39;10.13;;;7.93;;
60292;SDS011;52402;52.670;6.750;2023-04-24T08:28:10;10.57;;;7.20;;
60292;SDS011;52402;52.670;6.750;2023-04-24T08:30:48;9.43;;;6.35;;
60292;SDS011;52402;52.670;6.750;2023-04-24T08:33:33;8.38;;;6.50;;
60292;SDS011;52402;52.670;6.750;2023-04-24T08:36:20;9.70;;;6.78;;
60292;SDS011;52402;52.670;6.750;2023-04-24T08:38:58;6.93;;;5.32;;
60292;SDS011;52402;52.670;6.750;2023-04-24T08:41:31;8.73;;;5.22;;
60292;SDS011;52402;52.670;6.750;2023-04-24T08:44:20;9.38;;;5.15;;
60292;SDS011;52402;52.670;6.750;2023-04-24T08:47:15;7.45;;;4.35;;
60292;SDS011;52402;52.670;6.750;2023-04-24T08:49:52;9.20;;;4.30;;
60292;SDS011;52402;52.670;6.750;2023-04-24T08:52:41;8.18;;;4.78;;
60292;SDS011;52402;52.670;6.750;2023-04-24T08:55:12;10.00;;;5.78;;
60292;SDS011;52402;52.670;6.750;2023-04-24T09:06:25;14.10;;;10.80;;
60292;SDS011;52402;52.670;6.750;2023-04-24T09:09:18;14.57;;;9.38;;
60292;SDS011;52402;52.670;6.750;2023-04-24T09:11:59;18.92;;;12.27;;
60292;SDS011;52402;52.670;6.750;2023-04-24T09:14:37;13.80;;;9.50;;
60292;SDS011;52402;52.670;6.750;2023-04-24T09:17:17;14.88;;;11.88;;
60292;SDS011;52402;52.670;6.750;2023-04-24T09:19:47;18.48;;;12.40;;
60292;SDS011;52402;52.670;6.750;2023-04-24T09:22:20;19.15;;;13.68;;
60292;SDS011;52402;52.670;6.750;2023-04-24T09:25:01;16.85;;;11.68;;
60292;SDS011;52402;52.670;6.750;2023-04-24T09:27:45;19.08;;;13.73;;
60292;SDS011;52402;52.670;6.750;2023-04-24T09:30:21;21.63;;;15.27;;
60292;SDS011;52402;52.670;6.750;2023-04-24T09:35:54;29.08;;;21.00;;
60292;SDS011;52402;52.670;6.750;2023-04-24T09:38:39;25.17;;;18.15;;
60292;SDS011;52402;52.670;6.750;2023-04-24T09:41:07;27.55;;;20.30;;
60292;SDS011;52402;52.670;6.750;2023-04-24T09:43:41;26.25;;;19.20;;
60292;SDS011;52402;52.670;6.750;2023-04-24T09:46:17;26.65;;;19.67;;
60292;SDS011;52402;52.670;6.750;2023-04-24T09:49:07;25.63;;;19.70;;
60292;SDS011;52402;52.670;6.750;2023-04-24T09:51:38;26.38;;;18.38;;
60292;SDS011;52402;52.670;6.750;2023-04-24T09:54:22;26.67;;;18.65;;
60292;SDS011;52402;52.670;6.750;2023-04-24T09:56:56;26.10;;;18.45;;
60292;SDS011;52402;52.670;6.750;2023-04-24T09:59:29;25.00;;;19.00;;
60292;SDS011;52402;52.670;6.750;2023-04-24T10:02:00;25.95;;;17.48;;
60292;SDS011;52402;52.670;6.750;2023-04-24T10:04:53;23.02;;;17.33;;
60292;SDS011;52402;52.670;6.750;2023-04-24T10:07:29;22.40;;;18.13;;
60292;SDS011;52402;52.670;6.750;2023-04-24T10:10:07;24.30;;;17.48;;
60292;SDS011;52402;52.670;6.750;2023-04-24T10:12:36;19.17;;;15.80;;
60292;SDS011;52402;52.670;6.750;2023-04-24T10:15:08;25.23;;;14.85;;
60292;SDS011;52402;52.670;6.750;2023-04-24T10:17:43;19.63;;;14.32;;
60292;SDS011;52402;52.670;6.750;2023-04-24T10:20:19;20.48;;;13.32;;
60292;SDS011;52402;52.670;6.750;2023-04-24T10:22:51;17.98;;;12.98;;
60292;SDS011;52402;52.670;6.750;2023-04-24T10:25:20;17.25;;;12.30;;
60292;SDS011;52402;52.670;6.750;2023-04-24T10:27:48;15.50;;;11.63;;
60292;SDS011;52402;52.670;6.750;2023-04-24T10:30:17;16.58;;;11.45;;
60292;SDS011;52402;52.670;6.750;2023-04-24T10:32:44;19.02;;;12.48;;
60292;SDS011;52402;52.670;6.750;2023-04-24T10:37:56;18.45;;;11.77;;
60292;SDS011;52402;52.670;6.750;2023-04-24T10:48:07;11.57;;;6.80;;
60292;SDS011;52402;52.670;6.750;2023-04-24T10:51:26;9.40;;;5.88;;
60292;SDS011;52402;52.670;6.750;2023-04-24T10:53:55;11.45;;;5.47;;
60292;SDS011;52402;52.670;6.750;2023-04-24T11:02:42;10.20;;;6.10;;
60292;SDS011;52402;52.670;6.750;2023-04-24T11:05:18;12.35;;;5.63;;
60292;SDS011;52402;52.670;6.750;2023-04-24T11:08:34;10.02;;;5.47;;
60292;SDS011;52402;52.670;6.750;2023-04-24T11:16:45;11.80;;;4.95;;
60292;SDS011;52402;52.670;6.750;2023-04-24T11:19:23;9.82;;;4.40;;
60292;SDS011;52402;52.670;6.750;2023-04-24T11:21:56;8.18;;;4.28;;
60292;SDS011;52402;52.670;6.750;2023-04-24T11:24:53;8.25;;;3.80;;
60292;SDS011;52402;52.670;6.750;2023-04-24T11:27:37;9.50;;;4.28;;
60292;SDS011;52402;52.670;6.750;2023-04-24T11:30:18;7.07;;;4.07;;
60292;SDS011;52402;52.670;6.750;2023-04-24T11:32:50;8.13;;;3.90;;
60292;SDS011;52402;52.670;6.750;2023-04-24T11:35:21;8.60;;;3.80;;
60292;SDS011;52402;52.670;6.750;2023-04-24T11:37:51;9.57;;;3.58;;
60292;SDS011;52402;52.670;6.750;2023-04-24T11:40:20;9.32;;;4.13;;
60292;SDS011;52402;52.670;6.750;2023-04-24T11:42:51;7.78;;;3.33;;
60292;SDS011;52402;52.670;6.750;2023-04-24T11:45:25;11.32;;;4.18;;
60292;SDS011;52402;52.670;6.750;2023-04-24T11:47:58;11.95;;;3.33;;
60292;SDS011;52402;52.670;6.750;2023-04-24T11:50:32;10.02;;;2.70;;
60292;SDS011;52402;52.670;6.750;2023-04-24T11:53:09;10.63;;;3.08;;
60292;SDS011;52402;52.670;6.750;2023-04-24T11:55:39;6.93;;;2.35;;
60292;SDS011;52402;52.670;6.750;2023-04-24T11:58:09;10.35;;;3.60;;
60292;SDS011;52402;52.670;6.750;2023-04-24T12:00:39;7.47;;;2.88;;
60292;SDS011;52402;52.670;6.750;2023-04-24T12:03:08;9.10;;;3.30;;
60292;SDS011;52402;52.670;6.750;2023-04-24T12:05:39;6.90;;;3.17;;
60292;SDS011;52402;52.670;6.750;2023-04-24T12:08:17;8.35;;;2.75;;
60292;SDS011;52402;52.670;6.750;2023-04-24T12:10:56;7.10;;;3.03;;
60292;SDS011;52402;52.670;6.750;2023-04-24T12:13:29;6.97;;;2.63;;
60292;SDS011;52402;52.670;6.750;2023-04-24T12:16:00;6.50;;;3.15;;
60292;SDS011;52402;52.670;6.750;2023-04-24T12:18:32;7.72;;;3.28;;
60292;SDS011;52402;52.670;6.750;2023-04-24T12:23:58;7.43;;;2.88;;
60292;SDS011;52402;52.670;6.750;2023-04-24T12:29:00;8.07;;;3.15;;
60292;SDS011;52402;52.670;6.750;2023-04-24T12:31:30;7.95;;;2.72;;
60292;SDS011;52402;52.670;6.750;2023-04-24T12:34:00;8.23;;;2.90;;
60292;SDS011;52402;52.670;6.750;2023-04-24T12:36:28;8.35;;;3.10;;
60292;SDS011;52402;52.670;6.750;2023-04-24T12:39:06;8.52;;;2.40;;
60292;SDS011;52402;52.670;6.750;2023-04-24T12:41:50;8.05;;;3.63;;
60292;SDS011;52402;52.670;6.750;2023-04-24T12:44:34;5.57;;;2.30;;
60292;SDS011;52402;52.670;6.750;2023-04-24T12:47:04;7.70;;;2.30;;
60292;SDS011;52402;52.670;6.750;2023-04-24T12:49:37;6.20;;;2.10;;
60292;SDS011;52402;52.670;6.750;2023-04-24T12:52:05;5.47;;;2.20;;
60292;SDS011;52402;52.670;6.750;2023-04-24T12:54:36;6.00;;;2.00;;
60292;SDS011;52402;52.670;6.750;2023-04-24T12:57:04;7.32;;;2.35;;
60292;SDS011;52402;52.670;6.750;2023-04-24T12:59:35;5.65;;;1.90;;
60292;SDS011;52402;52.670;6.750;2023-04-24T13:02:03;3.78;;;1.80;;
60292;SDS011;52402;52.670;6.750;2023-04-24T13:04:36;4.20;;;1.52;;
60292;SDS011;52402;52.670;6.750;2023-04-24T13:07:09;4.60;;;1.33;;
60292;SDS011;52402;52.670;6.750;2023-04-24T13:09:42;3.45;;;1.50;;
60292;SDS011;52402;52.670;6.750;2023-04-24T13:12:13;5.22;;;1.33;;
60292;SDS011;52402;52.670;6.750;2023-04-24T13:14:39;3.63;;;1.42;;
60292;SDS011;52402;52.670;6.750;2023-04-24T13:17:07;3.63;;;1.50;;
60292;SDS011;52402;52.670;6.750;2023-04-24T13:19:36;5.10;;;1.40;;
60292;SDS011;52402;52.670;6.750;2023-04-24T13:22:04;5.20;;;1.52;;
60292;SDS011;52402;52.670;6.750;2023-04-24T13:24:34;4.40;;;1.88;;
60292;SDS011;52402;52.670;6.750;2023-04-24T13:27:05;6.45;;;2.22;;
60292;SDS011;52402;52.670;6.750;2023-04-24T13:29:35;6.93;;;2.20;;
60292;SDS011;52402;52.670;6.750;2023-04-24T13:32:04;5.72;;;1.98;;
60292;SDS011;52402;52.670;6.750;2023-04-24T13:34:46;8.73;;;2.05;;
60292;SDS011;52402;52.670;6.750;2023-04-24T13:37:13;8.40;;;2.17;;
60292;SDS011;52402;52.670;6.750;2023-04-24T13:39:44;7.60;;;2.05;;
60292;SDS011;52402;52.670;6.750;2023-04-24T13:42:16;5.47;;;1.92;;
60292;SDS011;52402;52.670;6.750;2023-04-24T13:44:52;6.30;;;1.55;;
60292;SDS011;52402;52.670;6.750;2023-04-24T13:47:25;7.13;;;1.90;;
60292;SDS011;52402;52.670;6.750;2023-04-24T13:49:53;6.55;;;1.85;;
60292;SDS011;52402;52.670;6.750;2023-04-24T13:54:54;5.68;;;1.52;;
60292;SDS011;52402;52.670;6.750;2023-04-24T13:59:52;4.97;;;1.55;;
60292;SDS011;52402;52.670;6.750;2023-04-24T14:02:28;5.88;;;1.65;;
60292;SDS011;52402;52.670;6.750;2023-04-24T14:04:58;3.15;;;1.20;;
60292;SDS011;52402;52.670;6.750;2023-04-24T14:07:38;5.35;;;1.50;;
60292;SDS011;52402;52.670;6.750;2023-04-24T14:10:09;3.00;;;1.30;;
60292;SDS011;52402;52.670;6.750;2023-04-24T14:15:10;4.57;;;1.40;;
60292;SDS011;52402;52.670;6.750;2023-04-24T14:17:40;5.25;;;1.30;;
60292;SDS011;52402;52.670;6.750;2023-04-24T14:20:18;3.80;;;1.20;;
60292;SDS011;52402;52.670;6.750;2023-04-24T14:23:17;6.10;;;1.60;;
60292;SDS011;52402;52.670;6.750;2023-04-24T14:25:46;4.90;;;1.60;;
60292;SDS011;52402;52.670;6.750;2023-04-24T14:28:24;5.13;;;1.70;;
60292;SDS011;52402;52.670;6.750;2023-04-24T14:30:51;4.03;;;1.63;;
60292;SDS011;52402;52.670;6.750;2023-04-24T14:33:19;7.57;;;2.13;;
60292;SDS011;52402;52.670;6.750;2023-04-24T14:35:45;8.52;;;2.38;;
60292;SDS011;52402;52.670;6.750;2023-04-24T14:38:15;5.55;;;2.00;;
60292;SDS011;52402;52.670;6.750;2023-04-24T14:40:49;9.95;;;2.40;;
60292;SDS011;52402;52.670;6.750;2023-04-24T14:43:23;6.03;;;1.70;;
60292;SDS011;52402;52.670;6.750;2023-04-24T14:51:15;3.35;;;1.45;;
60292;SDS011;52402;52.670;6.750;2023-04-24T14:54:01;8.45;;;1.98;;
60292;SDS011;52402;52.670;6.750;2023-04-24T14:56:31;6.88;;;1.70;;
60292;SDS011;52402;52.670;6.750;2023-04-24T14:59:14;8.40;;;2.17;;
60292;SDS011;52402;52.670;6.750;2023-04-24T15:01:58;5.90;;;2.05;;
60292;SDS011;52402;52.670;6.750;2023-04-24T15:06:58;7.75;;;2.15;;
60292;SDS011;52402;52.670;6.750;2023-04-24T15:09:28;5.88;;;2.30;;
60292;SDS011;52402;52.670;6.750;2023-04-24T15:12:01;6.10;;;1.75;;
60292;SDS011;52402;52.670;6.750;2023-04-24T15:14:31;5.93;;;2.33;;
60292;SDS011;52402;52.670;6.750;2023-04-24T15:16:59;5.78;;;2.20;;
60292;SDS011;52402;52.670;6.750;2023-04-24T15:19:27;6.07;;;1.70;;
60292;SDS011;52402;52.670;6.750;2023-04-24T15:21:57;7.00;;;2.10;;
60292;SDS011;52402;52.670;6.750;2023-04-24T15:24:25;8.68;;;2.08;;
60292;SDS011;52402;52.670;6.750;2023-04-24T15:29:25;8.32;;;2.88;;
60292;SDS011;52402;52.670;6.750;2023-04-24T15:31:56;7.88;;;2.38;;
60292;SDS011;52402;52.670;6.750;2023-04-24T15:34:29;5.38;;;2.25;;
60292;SDS011;52402;52.670;6.750;2023-04-24T15:37:01;10.88;;;2.38;;
60292;SDS011;52402;52.670;6.750;2023-04-24T15:39:37;8.13;;;2.00;;
60292;SDS011;52402;52.670;6.750;2023-04-24T15:42:05;8.77;;;2.70;;
60292;SDS011;52402;52.670;6.750;2023-04-24T15:44:38;7.72;;;1.80;;
60292;SDS011;52402;52.670;6.750;2023-04-24T15:47:08;9.38;;;2.47;;
60292;SDS011;52402;52.670;6.750;2023-04-24T15:49:34;8.90;;;2.22;;
60292;SDS011;52402;52.670;6.750;2023-04-24T15:52:10;5.47;;;1.80;;
60292;SDS011;52402;52.670;6.750;2023-04-24T15:54:43;6.70;;;2.25;;
60292;SDS011;52402;52.670;6.750;2023-04-24T15:57:14;5.25;;;1.90;;
60292;SDS011;52402;52.670;6.750;2023-04-24T15:59:49;6.95;;;1.80;;
60292;SDS011;52402;52.670;6.750;2023-04-24T16:02:20;6.32;;;1.75;;
60292;SDS011;52402;52.670;6.750;2023-04-24T16:04:53;6.68;;;2.15;;
60292;SDS011;52402;52.670;6.750;2023-04-24T16:07:20;7.50;;;2.05;;
60292;SDS011;52402;52.670;6.750;2023-04-24T16:09:48;8.70;;;2.20;;
60292;SDS011;52402;52.670;6.750;2023-04-24T16:12:19;9.25;;;2.53;;
60292;SDS011;52402;52.670;6.750;2023-04-24T16:14:49;8.23;;;2.33;;
60292;SDS011;52402;52.670;6.750;2023-04-24T16:17:20;6.93;;;2.10;;
60292;SDS011;52402;52.670;6.750;2023-04-24T16:19:48;7.65;;;2.40;;
60292;SDS011;52402;52.670;6.750;2023-04-24T16:24:48;7.68;;;2.45;;
60292;SDS011;52402;52.670;6.750;2023-04-24T16:29:53;6.03;;;1.70;;
60292;SDS011;52402;52.670;6.750;2023-04-24T16:32:25;4.82;;;1.63;;
60292;SDS011;52402;52.670;6.750;2023-04-24T16:34:53;5.65;;;2.40;;
60292;SDS011;52402;52.670;6.750;2023-04-24T16:37:21;9.23;;;2.22;;
60292;SDS011;52402;52.670;6.750;2023-04-24T16:39:52;9.95;;;2.95;;
60292;SDS011;52402;52.670;6.750;2023-04-24T16:44:52;8.95;;;2.28;;
60292;SDS011;52402;52.670;6.750;2023-04-24T16:47:29;10.60;;;3.08;;
60292;SDS011;52402;52.670;6.750;2023-04-24T16:49:59;6.90;;;2.25;;